Time;durP1;ratioP1;P1;durP2;ratioP2;P2;SDS_P1;SDS_P2;PMS_P1;PMS_P2;Temp;Humidity;BMP_temperature;BMP_pressure;BME280_temperature;BME280_humidity;BME280_pressure;Samples;Min_cycle;Max_cycle;Signal;HPM_P1;HPM_P2
2023/05/24 00:00:24;;;;;;;12.57;2.95;;;;;;;;;;5096316;28;20082;-78
2023/05/24 00:02:51;;;;;;;15.00;2.92;;;;;;;;;;5096722;28;20024;-78
2023/05/24 00:05:17;;;;;;;23.23;3.10;;;;;;;;;;5096603;28;20039;-77
2023/05/24 00:07:43;;;;;;;20.58;3.13;;;;;;;;;;5077878;28;20077;-78
2023/05/24 00:10:10;;;;;;;12.63;2.67;;;;;;;;;;5096893;28;20024;-77
2023/05/24 00:12:36;;;;;;;13.77;3.25;;;;;;;;;;5096159;28;20024;-78
2023/05/24 00:15:02;;;;;;;19.13;3.10;;;;;;;;;;5096373;28;20389;-78
2023/05/24 00:17:29;;;;;;;15.70;3.42;;;;;;;;;;5096099;28;20035;-78
2023/05/24 00:19:55;;;;;;;14.90;3.25;;;;;;;;;;5096182;28;20466;-78
2023/05/24 00:22:21;;;;;;;19.38;3.72;;;;;;;;;;5096258;28;20024;-78
2023/05/24 00:24:47;;;;;;;20.25;4.00;;;;;;;;;;5096343;28;20032;-78
2023/05/24 00:27:13;;;;;;;13.32;3.13;;;;;;;;;;5095865;28;20032;-78
2023/05/24 00:29:39;;;;;;;14.77;2.92;;;;;;;;;;5094769;28;20030;-78
2023/05/24 00:32:06;;;;;;;15.05;2.92;;;;;;;;;;5095525;28;20541;-78
2023/05/24 00:34:32;;;;;;;17.65;3.90;;;;;;;;;;5096148;28;20024;-77
2023/05/24 00:36:58;;;;;;;10.48;2.83;;;;;;;;;;5095849;28;20419;-77
2023/05/24 00:39:23;;;;;;;17.33;3.78;;;;;;;;;;5096036;28;20020;-78
2023/05/24 00:41:51;;;;;;;17.20;3.10;;;;;;;;;;5095940;28;20055;-78
2023/05/24 00:44:23;;;;;;;17.02;3.53;;;;;;;;;;5096178;28;20111;-78
2023/05/24 00:46:49;;;;;;;14.98;3.15;;;;;;;;;;5096137;28;20024;-78
2023/05/24 00:49:15;;;;;;;15.30;3.28;;;;;;;;;;5097612;28;20366;-78
2023/05/24 00:51:41;;;;;;;12.57;3.13;;;;;;;;;;5095162;28;20024;-79
2023/05/24 00:54:07;;;;;;;12.43;2.88;;;;;;;;;;5095989;28;20770;-78
2023/05/24 00:56:33;;;;;;;12.77;3.00;;;;;;;;;;5095622;28;20027;-79
2023/05/24 00:58:59;;;;;;;14.40;3.20;;;;;;;;;;5095997;28;20020;-79
2023/05/24 01:01:29;;;;;;;17.13;2.65;;;;;;;;;;5094414;28;20051;-78
2023/05/24 01:03:56;;;;;;;11.68;2.72;;;;;;;;;;5095706;28;20031;-78
2023/05/24 01:06:23;;;;;;;15.10;3.42;;;;;;;;;;5095484;28;20036;-78
2023/05/24 01:09:01;;;;;;;13.98;3.08;;;;;;;;;;5095537;28;20063;-78
2023/05/24 01:11:27;;;;;;;14.05;2.70;;;;;;;;;;5095907;28;20089;-78
2023/05/24 01:14:08;;;;;;;12.57;2.60;;;;;;;;;;5095391;28;20027;-78
2023/05/24 01:16:45;;;;;;;19.35;4.20;;;;;;;;;;5095328;28;20089;-79
2023/05/24 01:19:24;;;;;;;14.20;3.28;;;;;;;;;;5095858;28;20028;-79
2023/05/24 01:22:05;;;;;;;10.77;2.93;;;;;;;;;;5095874;28;20107;-79
2023/05/24 01:24:52;;;;;;;14.70;2.83;;;;;;;;;;5087124;28;20521;-78
2023/05/24 01:27:33;;;;;;;13.60;2.97;;;;;;;;;;5094151;28;20035;-78
2023/05/24 01:30:00;;;;;;;13.93;2.78;;;;;;;;;;5076211;28;20027;-79
2023/05/24 01:32:26;;;;;;;18.02;3.03;;;;;;;;;;5095115;28;20028;-78
2023/05/24 01:34:52;;;;;;;15.38;3.45;;;;;;;;;;5094842;28;20060;-78
2023/05/24 01:37:18;;;;;;;12.82;3.58;;;;;;;;;;5096137;28;20032;-79
2023/05/24 01:39:44;;;;;;;18.20;2.72;;;;;;;;;;5097561;28;20028;-78
2023/05/24 01:42:26;;;;;;;7.70;2.25;;;;;;;;;;5095790;28;20058;-78
2023/05/24 01:45:02;;;;;;;18.02;3.60;;;;;;;;;;5095960;28;20085;-78
2023/05/24 01:47:35;;;;;;;13.70;2.67;;;;;;;;;;5096566;28;20531;-78
2023/05/24 01:50:04;;;;;;;10.23;2.53;;;;;;;;;;5095783;28;20086;-79
2023/05/24 01:52:32;;;;;;;18.77;3.90;;;;;;;;;;5095452;28;20103;-79
2023/05/24 01:55:00;;;;;;;14.20;3.13;;;;;;;;;;5096625;28;20028;-79
2023/05/24 01:57:26;;;;;;;9.02;2.72;;;;;;;;;;5096237;28;20513;-79
2023/05/24 01:59:52;;;;;;;12.90;2.72;;;;;;;;;;5096566;28;20028;-78
2023/05/24 02:02:18;;;;;;;13.30;2.72;;;;;;;;;;5096255;28;20024;-78
2023/05/24 02:04:44;;;;;;;12.13;2.80;;;;;;;;;;5099507;28;20463;-78
2023/05/24 02:07:18;;;;;;;12.23;2.80;;;;;;;;;;5099195;28;20115;-79
2023/05/24 02:09:45;;;;;;;10.05;2.53;;;;;;;;;;5099910;28;20028;-78
2023/05/24 02:12:11;;;;;;;12.40;2.58;;;;;;;;;;5099682;28;20382;-78
2023/05/24 02:14:37;;;;;;;11.93;3.08;;;;;;;;;;5099492;28;20064;-78
2023/05/24 02:17:04;;;;;;;12.48;2.28;;;;;;;;;;5098893;28;20056;-78
2023/05/24 02:19:30;;;;;;;14.52;3.03;;;;;;;;;;5099246;28;20020;-78
2023/05/24 02:21:56;;;;;;;11.45;2.67;;;;;;;;;;5099059;28;20055;-79
2023/05/24 02:24:22;;;;;;;10.20;2.20;;;;;;;;;;5099177;28;20375;-78
2023/05/24 02:26:48;;;;;;;15.18;2.53;;;;;;;;;;5098578;28;20032;-78
2023/05/24 02:29:14;;;;;;;12.07;2.40;;;;;;;;;;5099059;28;20370;-79
2023/05/24 02:31:40;;;;;;;12.90;2.88;;;;;;;;;;5098681;28;20051;-79
2023/05/24 02:34:06;;;;;;;12.05;2.67;;;;;;;;;;5099034;28;20024;-79
2023/05/24 02:36:35;;;;;;;12.15;2.80;;;;;;;;;;5097066;28;20036;-79
2023/05/24 02:39:01;;;;;;;10.80;2.22;;;;;;;;;;5099391;28;20450;-78
2023/05/24 02:41:27;;;;;;;10.70;2.78;;;;;;;;;;5099366;28;20024;-79
2023/05/24 02:43:53;;;;;;;17.58;3.08;;;;;;;;;;5082373;28;20434;-79
2023/05/24 02:46:18;;;;;;;10.10;2.95;;;;;;;;;;5081278;28;20028;-79
2023/05/24 02:48:45;;;;;;;11.70;2.70;;;;;;;;;;5081046;28;20033;-79
2023/05/24 02:51:12;;;;;;;12.38;2.38;;;;;;;;;;5094093;28;20043;-79
2023/05/24 02:53:38;;;;;;;13.45;2.17;;;;;;;;;;5101237;28;20032;-79
2023/05/24 02:56:04;;;;;;;9.98;2.53;;;;;;;;;;5101417;28;20055;-79
2023/05/24 02:58:30;;;;;;;17.63;3.05;;;;;;;;;;5101555;28;20020;-79
2023/05/24 03:00:56;;;;;;;11.93;2.45;;;;;;;;;;5100828;28;20382;-79
2023/05/24 03:03:22;;;;;;;12.23;2.38;;;;;;;;;;5088559;28;20133;-79
2023/05/24 03:05:48;;;;;;;10.32;2.38;;;;;;;;;;5096659;28;20039;-79
2023/05/24 03:08:15;;;;;;;11.98;3.20;;;;;;;;;;5100433;28;20089;-79
2023/05/24 03:10:41;;;;;;;15.70;2.75;;;;;;;;;;5100433;28;20024;-79
2023/05/24 03:13:07;;;;;;;10.50;1.55;;;;;;;;;;5098619;28;20073;-79
2023/05/24 03:15:33;;;;;;;11.23;2.08;;;;;;;;;;5097246;28;20110;-79
2023/05/24 03:17:59;;;;;;;10.85;2.10;;;;;;;;;;5097837;28;20024;-78
2023/05/24 03:20:26;;;;;;;9.15;2.70;;;;;;;;;;5098585;28;20445;-79
2023/05/24 03:22:52;;;;;;;13.77;2.78;;;;;;;;;;5079338;28;20028;-79
2023/05/24 03:25:18;;;;;;;9.80;2.10;;;;;;;;;;5097882;28;20043;-79
2023/05/24 03:27:44;;;;;;;12.07;2.95;;;;;;;;;;5079652;28;20519;-79
2023/05/24 03:30:11;;;;;;;10.73;2.35;;;;;;;;;;5096035;28;20052;-79
2023/05/24 03:32:47;;;;;;;10.65;3.05;;;;;;;;;;5098758;28;20016;-79
2023/05/24 03:35:13;;;;;;;10.60;2.65;;;;;;;;;;5098890;28;20032;-78
2023/05/24 03:37:39;;;;;;;16.95;3.30;;;;;;;;;;5068591;28;20048;-78
2023/05/24 03:40:05;;;;;;;12.13;2.28;;;;;;;;;;5076760;28;20043;-78
2023/05/24 03:42:31;;;;;;;12.15;3.20;;;;;;;;;;5076628;28;20078;-78
2023/05/24 03:44:57;;;;;;;10.77;2.80;;;;;;;;;;5076190;28;20429;-79
2023/05/24 03:47:23;;;;;;;11.27;3.33;;;;;;;;;;5075438;28;20060;-78
2023/05/24 03:49:50;;;;;;;15.05;2.70;;;;;;;;;;5075353;28;20025;-79
2023/05/24 03:52:20;;;;;;;15.32;2.72;;;;;;;;;;5077533;28;20029;-79
2023/05/24 03:54:46;;;;;;;10.45;3.72;;;;;;;;;;5076254;28;20032;-79
2023/05/24 03:57:12;;;;;;;11.88;3.05;;;;;;;;;;5088620;28;20028;-79
2023/05/24 03:59:38;;;;;;;11.77;2.88;;;;;;;;;;5097010;28;20032;-79
2023/05/24 04:02:04;;;;;;;15.32;2.70;;;;;;;;;;5096042;28;20024;-79
2023/05/24 04:04:30;;;;;;;13.40;2.95;;;;;;;;;;5095203;28;20117;-79
2023/05/24 04:06:56;;;;;;;9.27;2.22;;;;;;;;;;5095311;28;20078;-79
2023/05/24 04:09:23;;;;;;;11.45;2.63;;;;;;;;;;5096431;28;20427;-78
2023/05/24 04:11:49;;;;;;;9.88;2.38;;;;;;;;;;5095806;28;20034;-79
2023/05/24 04:14:31;;;;;;;14.80;2.75;;;;;;;;;;5096395;28;20024;-79
2023/05/24 04:16:57;;;;;;;12.18;2.80;;;;;;;;;;5095944;28;20122;-79
2023/05/24 04:19:23;;;;;;;14.10;3.00;;;;;;;;;;5096864;28;20024;-79
2023/05/24 04:21:49;;;;;;;9.70;2.60;;;;;;;;;;5096392;28;20375;-81
2023/05/24 04:24:15;;;;;;;12.50;2.40;;;;;;;;;;5094829;28;20020;-79
2023/05/24 04:26:41;;;;;;;10.32;2.35;;;;;;;;;;5094622;28;20028;-79
2023/05/24 04:29:08;;;;;;;16.60;3.63;;;;;;;;;;5094152;28;20028;-78
2023/05/24 04:31:35;;;;;;;12.43;3.08;;;;;;;;;;5094449;28;20044;-79
2023/05/24 04:34:01;;;;;;;12.23;3.08;;;;;;;;;;5111760;28;20024;-78
2023/05/24 04:36:27;;;;;;;12.52;3.13;;;;;;;;;;5114872;28;20032;-78
2023/05/24 04:38:54;;;;;;;14.55;2.90;;;;;;;;;;5114797;28;20016;-78
2023/05/24 04:41:21;;;;;;;15.15;3.00;;;;;;;;;;5096706;28;20027;-79
2023/05/24 04:43:47;;;;;;;11.57;4.15;;;;;;;;;;5114769;28;20030;-79
2023/05/24 04:46:13;;;;;;;10.02;2.70;;;;;;;;;;5114643;28;20028;-79
2023/05/24 04:48:39;;;;;;;17.92;2.97;;;;;;;;;;5114766;28;20034;-79
2023/05/24 04:51:05;;;;;;;14.30;2.47;;;;;;;;;;5094482;28;20031;-79
2023/05/24 04:53:31;;;;;;;7.57;2.83;;;;;;;;;;5094022;28;20024;-78
2023/05/24 04:55:58;;;;;;;11.05;2.50;;;;;;;;;;5094182;28;20059;-77
2023/05/24 04:58:26;;;;;;;12.20;2.50;;;;;;;;;;5093281;28;20024;-77
2023/05/24 05:00:52;;;;;;;15.15;3.00;;;;;;;;;;5093777;28;20479;-78
2023/05/24 05:03:18;;;;;;;8.10;2.88;;;;;;;;;;5093772;28;20028;-78
2023/05/24 05:05:45;;;;;;;14.90;3.00;;;;;;;;;;5075658;28;20614;-79
2023/05/24 05:08:11;;;;;;;18.65;3.28;;;;;;;;;;5094241;28;20050;-79
2023/05/24 05:10:37;;;;;;;11.48;2.97;;;;;;;;;;5093625;28;20059;-78
2023/05/24 05:13:03;;;;;;;11.45;2.50;;;;;;;;;;5093708;28;20038;-78
2023/05/24 05:15:29;;;;;;;10.50;2.38;;;;;;;;;;5093952;28;20035;-78
2023/05/24 05:17:56;;;;;;;9.63;2.20;;;;;;;;;;5093792;28;20028;-78
2023/05/24 05:20:22;;;;;;;11.02;2.50;;;;;;;;;;5093947;28;20111;-78
2023/05/24 05:22:48;;;;;;;9.52;2.38;;;;;;;;;;5093617;28;20560;-78
2023/05/24 05:25:15;;;;;;;9.68;2.55;;;;;;;;;;5093313;28;20032;-78
2023/05/24 05:27:41;;;;;;;12.50;2.60;;;;;;;;;;5093432;28;20103;-78
2023/05/24 05:30:07;;;;;;;10.95;1.92;;;;;;;;;;5093112;28;20027;-79
2023/05/24 05:32:33;;;;;;;6.03;1.42;;;;;;;;;;5093558;28;20030;-79
2023/05/24 05:34:59;;;;;;;6.25;2.05;;;;;;;;;;5093389;28;20405;-79
2023/05/24 05:37:25;;;;;;;6.95;1.73;;;;;;;;;;5093503;28;20077;-78
2023/05/24 05:40:09;;;;;;;6.13;1.98;;;;;;;;;;5097712;28;20047;-79
2023/05/24 05:42:38;;;;;;;10.18;2.13;;;;;;;;;;5077829;28;20037;-79
2023/05/24 05:45:04;;;;;;;6.95;1.50;;;;;;;;;;5078105;28;20033;-79
2023/05/24 05:47:30;;;;;;;5.38;1.92;;;;;;;;;;5077801;28;20485;-79
2023/05/24 05:49:56;;;;;;;12.55;1.98;;;;;;;;;;5108737;28;20094;-80
2023/05/24 05:52:22;;;;;;;7.47;1.95;;;;;;;;;;5103021;28;20028;-81
2023/05/24 05:54:48;;;;;;;11.70;2.90;;;;;;;;;;5097400;28;20039;-80
2023/05/24 05:57:15;;;;;;;8.38;1.77;;;;;;;;;;5097258;28;20486;-80
2023/05/24 05:59:41;;;;;;;8.63;2.38;;;;;;;;;;5097808;28;20058;-79
2023/05/24 06:02:07;;;;;;;9.95;2.22;;;;;;;;;;5079259;28;20052;-79
2023/05/24 06:04:33;;;;;;;4.93;1.13;;;;;;;;;;5097444;28;20020;-80
2023/05/24 06:06:59;;;;;;;9.57;2.08;;;;;;;;;;5088535;28;20181;-80
2023/05/24 06:09:25;;;;;;;4.50;1.35;;;;;;;;;;5077461;28;20021;-80
2023/05/24 06:11:51;;;;;;;3.10;1.30;;;;;;;;;;5077005;28;20020;-80
2023/05/24 06:14:18;;;;;;;8.38;1.60;;;;;;;;;;5085722;28;20093;-80
2023/05/24 06:16:44;;;;;;;6.32;1.20;;;;;;;;;;5098950;28;20028;-80
2023/05/24 06:19:11;;;;;;;9.93;2.10;;;;;;;;;;5098941;28;20049;-80
2023/05/24 06:21:37;;;;;;;8.75;2.05;;;;;;;;;;5098329;28;20028;-80
2023/05/24 06:24:03;;;;;;;11.55;2.15;;;;;;;;;;5098268;28;20089;-80
2023/05/24 06:26:29;;;;;;;8.02;2.35;;;;;;;;;;5098189;28;20031;-80
2023/05/24 06:28:55;;;;;;;7.32;1.90;;;;;;;;;;5098724;28;20032;-80
2023/05/24 06:31:21;;;;;;;4.97;1.73;;;;;;;;;;5097917;28;20149;-81
2023/05/24 06:33:47;;;;;;;5.55;1.30;;;;;;;;;;5098434;28;20078;-80
2023/05/24 06:36:13;;;;;;;7.78;1.63;;;;;;;;;;5098719;28;20032;-80
2023/05/24 06:38:40;;;;;;;4.53;1.50;;;;;;;;;;5098742;28;20408;-80
2023/05/24 06:41:07;;;;;;;6.03;1.60;;;;;;;;;;5099414;28;20328;-80
2023/05/24 06:43:33;;;;;;;11.80;2.10;;;;;;;;;;5099496;28;20267;-81
2023/05/24 06:45:59;;;;;;;5.43;1.42;;;;;;;;;;5098851;28;20741;-81
2023/05/24 06:48:25;;;;;;;8.90;1.52;;;;;;;;;;5098937;28;20035;-81
2023/05/24 06:50:51;;;;;;;7.22;2.05;;;;;;;;;;5079422;28;20024;-81
2023/05/24 06:53:17;;;;;;;10.30;1.83;;;;;;;;;;5098834;28;20027;-80
2023/05/24 06:55:43;;;;;;;10.05;2.08;;;;;;;;;;5099482;28;20024;-81
2023/05/24 06:58:13;;;;;;;6.60;1.40;;;;;;;;;;5098305;28;20489;-80
2023/05/24 07:00:39;;;;;;;5.90;2.05;;;;;;;;;;5098870;28;20028;-81
2023/05/24 07:03:05;;;;;;;7.57;2.25;;;;;;;;;;5098261;28;20095;-81
2023/05/24 07:05:31;;;;;;;4.95;1.95;;;;;;;;;;5098486;28;20534;-80
2023/05/24 07:07:57;;;;;;;4.97;1.67;;;;;;;;;;5117212;28;20061;-81
2023/05/24 07:10:23;;;;;;;8.52;2.00;;;;;;;;;;5104871;28;20387;-81
2023/05/24 07:12:49;;;;;;;6.30;1.83;;;;;;;;;;5098972;28;20089;-81
2023/05/24 07:15:15;;;;;;;6.88;1.70;;;;;;;;;;5107207;28;20106;-81
2023/05/24 07:17:41;;;;;;;8.23;1.70;;;;;;;;;;5116124;28;20066;-81
2023/05/24 07:20:12;;;;;;;7.68;1.40;;;;;;;;;;5081351;28;20028;-82
2023/05/24 07:22:38;;;;;;;4.82;1.75;;;;;;;;;;5098107;28;20024;-81
2023/05/24 07:25:04;;;;;;;8.90;1.92;;;;;;;;;;5080621;28;20088;-80
2023/05/24 07:27:37;;;;;;;11.40;1.67;;;;;;;;;;5098801;28;20028;-81
2023/05/24 07:30:04;;;;;;;3.97;1.20;;;;;;;;;;5097646;28;20081;-81
2023/05/24 07:32:31;;;;;;;8.48;1.48;;;;;;;;;;5097546;28;20544;-81
2023/05/24 07:34:57;;;;;;;6.13;1.55;;;;;;;;;;5098209;28;20061;-80
2023/05/24 07:37:23;;;;;;;12.23;2.00;;;;;;;;;;5097695;28;20051;-80
2023/05/24 07:39:50;;;;;;;5.78;1.55;;;;;;;;;;5079875;28;20028;-80
2023/05/24 07:42:17;;;;;;;9.40;2.08;;;;;;;;;;5097876;28;20012;-81
2023/05/24 07:44:43;;;;;;;8.75;2.28;;;;;;;;;;5079848;28;20024;-80
2023/05/24 07:47:09;;;;;;;6.45;1.90;;;;;;;;;;5098216;28;20054;-81
2023/05/24 07:49:35;;;;;;;6.82;2.20;;;;;;;;;;5097699;28;20564;-81
2023/05/24 07:52:02;;;;;;;5.22;1.90;;;;;;;;;;5098140;28;20028;-81
2023/05/24 07:54:28;;;;;;;3.17;1.52;;;;;;;;;;5078558;28;20028;-81
2023/05/24 07:56:56;;;;;;;6.53;1.42;;;;;;;;;;5090260;28;20028;-81
2023/05/24 07:59:22;;;;;;;7.07;1.40;;;;;;;;;;5077591;28;20021;-81
2023/05/24 08:01:48;;;;;;;3.78;1.52;;;;;;;;;;5077775;28;20391;-81
2023/05/24 08:04:15;;;;;;;5.45;1.95;;;;;;;;;;5077489;28;20025;-81
2023/05/24 08:06:41;;;;;;;9.68;2.25;;;;;;;;;;5077515;28;20025;-80
2023/05/24 08:09:07;;;;;;;5.03;1.48;;;;;;;;;;5059375;28;20108;-81
2023/05/24 08:11:33;;;;;;;5.50;1.98;;;;;;;;;;5087915;28;20103;-81
2023/05/24 08:14:01;;;;;;;3.38;1.05;;;;;;;;;;5097075;28;20059;-81
2023/05/24 08:16:27;;;;;;;6.82;2.20;;;;;;;;;;5096601;28;20424;-81
2023/05/24 08:18:53;;;;;;;3.20;1.38;;;;;;;;;;5096875;28;20028;-81
2023/05/24 08:21:19;;;;;;;4.45;1.50;;;;;;;;;;5096038;28;20056;-80
2023/05/24 08:23:45;;;;;;;4.97;1.85;;;;;;;;;;5095694;28;20070;-80
2023/05/24 08:26:11;;;;;;;6.18;1.27;;;;;;;;;;5095145;28;20024;-80
2023/05/24 08:28:37;;;;;;;7.38;1.73;;;;;;;;;;5096552;28;20031;-80
2023/05/24 08:31:09;;;;;;;4.40;1.33;;;;;;;;;;5092821;28;20383;-80
2023/05/24 08:33:35;;;;;;;4.32;1.40;;;;;;;;;;5110179;28;20020;-80
2023/05/24 08:36:01;;;;;;;4.70;0.95;;;;;;;;;;5108347;28;20024;-80
2023/05/24 08:38:28;;;;;;;7.68;1.73;;;;;;;;;;5095045;28;20540;-80
2023/05/24 08:40:54;;;;;;;7.88;2.00;;;;;;;;;;5095804;28;20101;-80
2023/05/24 08:43:20;;;;;;;5.20;1.25;;;;;;;;;;5095545;28;20137;-80
2023/05/24 08:45:47;;;;;;;2.90;1.10;;;;;;;;;;5095583;28;20028;-80
2023/05/24 08:48:20;;;;;;;5.30;1.13;;;;;;;;;;5094760;28;20054;-80
2023/05/24 08:50:46;;;;;;;4.65;1.83;;;;;;;;;;5077302;28;20658;-80
2023/05/24 08:53:13;;;;;;;2.75;1.13;;;;;;;;;;5094325;28;20099;-80
2023/05/24 08:55:42;;;;;;;6.65;1.40;;;;;;;;;;5095598;28;20028;-80
2023/05/24 08:58:08;;;;;;;8.13;1.60;;;;;;;;;;5095859;28;20020;-80
2023/05/24 09:00:34;;;;;;;11.50;2.10;;;;;;;;;;5092841;28;20118;-80
2023/05/24 09:03:01;;;;;;;1.20;0.90;;;;;;;;;;5093590;28;20469;-80
2023/05/24 09:05:29;;;;;;;8.23;2.38;;;;;;;;;;5094118;28;20031;-80
2023/05/24 09:07:55;;;;;;;8.27;1.85;;;;;;;;;;5095570;28;20020;-80
2023/05/24 09:10:21;;;;;;;7.10;2.05;;;;;;;;;;5076111;28;20020;-79
2023/05/24 09:12:51;;;;;;;8.70;1.48;;;;;;;;;;5094502;28;20016;-80
2023/05/24 09:15:17;;;;;;;4.75;1.27;;;;;;;;;;5095198;28;20390;-79
2023/05/24 09:17:49;;;;;;;8.70;2.15;;;;;;;;;;5093835;28;20028;-79
2023/05/24 09:20:15;;;;;;;3.80;1.30;;;;;;;;;;5094753;28;20028;-79
2023/05/24 09:22:42;;;;;;;7.20;1.77;;;;;;;;;;5094638;28;20108;-80
2023/05/24 09:25:08;;;;;;;8.73;1.80;;;;;;;;;;5094310;28;20073;-79
2023/05/24 09:27:35;;;;;;;6.45;1.77;;;;;;;;;;5094702;28;20534;-79
2023/05/24 09:30:02;;;;;;;6.13;1.73;;;;;;;;;;5094816;28;20020;-80
2023/05/24 09:32:30;;;;;;;5.70;1.52;;;;;;;;;;5094716;28;20310;-80
2023/05/24 09:34:57;;;;;;;10.88;1.95;;;;;;;;;;5094708;28;20024;-79
2023/05/24 09:37:26;;;;;;;6.47;1.77;;;;;;;;;;5094051;28;20028;-79
2023/05/24 09:39:52;;;;;;;3.35;1.05;;;;;;;;;;5078143;28;20538;-79
2023/05/24 09:42:22;;;;;;;4.47;1.58;;;;;;;;;;5080873;28;20051;-80
2023/05/24 09:45:11;;;;;;;5.65;1.85;;;;;;;;;;5074048;28;20027;-80
2023/05/24 09:47:39;;;;;;;6.20;1.75;;;;;;;;;;5089051;28;20031;-79
2023/05/24 09:50:05;;;;;;;4.88;1.48;;;;;;;;;;5095782;28;20020;-79
2023/05/24 09:52:35;;;;;;;7.47;1.88;;;;;;;;;;5095121;28;20016;-79
2023/05/24 09:55:01;;;;;;;;;;;;;;;;;;5094723;28;20027;-79
2023/05/24 09:57:27;;;;;;;6.85;1.50;;;;;;;;;;5095462;28;19904;-81
2023/05/24 09:59:53;;;;;;;3.25;1.30;;;;;;;;;;5095293;28;20039;-78
2023/05/24 10:02:22;;;;;;;5.40;1.48;;;;;;;;;;5095779;28;20077;-78
2023/05/24 10:04:48;;;;;;;7.95;1.63;;;;;;;;;;5076452;28;20020;-78
2023/05/24 10:07:15;;;;;;;8.05;1.75;;;;;;;;;;5086095;28;20028;-77
2023/05/24 10:09:41;;;;;;;3.75;1.65;;;;;;;;;;5092348;28;20451;-77
2023/05/24 10:12:08;;;;;;;6.13;1.77;;;;;;;;;;5092487;28;20052;-77
2023/05/24 10:14:36;;;;;;;5.82;1.80;;;;;;;;;;5092442;28;20077;-77
2023/05/24 10:17:04;;;;;;;3.55;1.40;;;;;;;;;;5092532;28;20453;-77
2023/05/24 10:19:30;;;;;;;5.53;2.40;;;;;;;;;;5092517;28;20008;-78
2023/05/24 10:21:57;;;;;;;5.72;1.70;;;;;;;;;;5094030;28;20466;-79
2023/05/24 10:24:24;;;;;;;5.32;1.50;;;;;;;;;;5095375;28;20017;-79
2023/05/24 10:26:51;;;;;;;5.20;2.03;;;;;;;;;;5096863;28;20028;-79
2023/05/24 10:29:32;;;;;;;9.18;1.77;;;;;;;;;;5097187;28;20024;-79
2023/05/24 10:32:13;;;;;;;4.93;1.83;;;;;;;;;;5096090;28;20443;-79
2023/05/24 10:34:47;;;;;;;6.30;1.77;;;;;;;;;;5096877;28;20114;-78
2023/05/24 10:37:14;;;;;;;8.73;1.58;;;;;;;;;;5096467;28;20455;-78
2023/05/24 10:39:41;;;;;;;5.00;1.33;;;;;;;;;;5096856;28;20024;-79
2023/05/24 10:42:07;;;;;;;5.35;1.90;;;;;;;;;;5096717;28;20024;-79
2023/05/24 10:44:33;;;;;;;2.78;1.00;;;;;;;;;;5096847;28;20032;-79
2023/05/24 10:47:19;;;;;;;5.85;1.55;;;;;;;;;;5096872;28;20040;-79
2023/05/24 10:49:55;;;;;;;3.92;1.63;;;;;;;;;;5097588;28;20036;-79
2023/05/24 10:52:21;;;;;;;3.92;1.73;;;;;;;;;;5097288;28;20040;-79
2023/05/24 10:55:06;;;;;;;3.65;1.23;;;;;;;;;;5096982;28;20031;-79
2023/05/24 10:57:33;;;;;;;3.63;1.33;;;;;;;;;;5096666;28;20016;-79
2023/05/24 11:00:17;;;;;;;3.50;1.15;;;;;;;;;;5096459;28;20073;-79
2023/05/24 11:02:43;;;;;;;4.22;1.00;;;;;;;;;;5096756;28;20074;-79
2023/05/24 11:05:10;;;;;;;3.60;1.42;;;;;;;;;;5097485;28;20032;-79
2023/05/24 11:07:41;;;;;;;5.50;1.15;;;;;;;;;;5106681;28;20020;-79
2023/05/24 11:10:15;;;;;;;4.55;1.65;;;;;;;;;;5098555;28;20068;-79
2023/05/24 11:12:42;;;;;;;4.97;1.55;;;;;;;;;;5117183;28;20015;-79
2023/05/24 11:15:11;;;;;;;5.32;1.98;;;;;;;;;;5111667;28;20107;-79
2023/05/24 11:18:12;;;;;;;4.97;1.30;;;;;;;;;;5097818;28;20352;-79
2023/05/24 11:20:38;;;;;;;2.83;0.95;;;;;;;;;;5096586;28;20267;-79
2023/05/24 11:23:05;;;;;;;1.88;1.20;;;;;;;;;;5097205;28;20031;-79
2023/05/24 11:25:34;;;;;;;4.15;1.10;;;;;;;;;;5105965;28;20054;-78
2023/05/24 11:28:00;;;;;;;3.13;2.00;;;;;;;;;;5100022;28;20078;-79
2023/05/24 11:30:26;;;;;;;5.22;1.70;;;;;;;;;;5099620;28;20024;-79
2023/05/24 11:32:52;;;;;;;6.07;1.70;;;;;;;;;;5099971;28;20049;-79
2023/05/24 11:35:21;;;;;;;9.13;1.60;;;;;;;;;;5102406;28;20024;-79
2023/05/24 11:37:47;;;;;;;5.22;1.67;;;;;;;;;;5101273;28;20027;-80
2023/05/24 11:40:15;;;;;;;4.55;1.50;;;;;;;;;;5093570;28;20059;-80
2023/05/24 11:42:41;;;;;;;6.90;1.50;;;;;;;;;;5103994;28;20012;-79
2023/05/24 11:45:09;;;;;;;4.32;1.23;;;;;;;;;;5104843;28;20032;-80
2023/05/24 11:47:35;;;;;;;4.65;1.10;;;;;;;;;;5082943;28;20497;-80
2023/05/24 11:50:02;;;;;;;6.93;1.92;;;;;;;;;;5108580;28;20489;-80
2023/05/24 11:52:28;;;;;;;6.90;1.60;;;;;;;;;;5100243;28;20016;-79
2023/05/24 11:54:54;;;;;;;5.38;1.80;;;;;;;;;;5095999;28;20024;-80
2023/05/24 11:57:23;;;;;;;3.63;1.33;;;;;;;;;;5097055;28;20374;-79
2023/05/24 11:59:49;;;;;;;4.80;2.00;;;;;;;;;;5108795;28;20049;-79
2023/05/24 12:02:16;;;;;;;4.38;1.67;;;;;;;;;;5099452;28;20534;-80
2023/05/24 12:04:42;;;;;;;3.53;1.40;;;;;;;;;;5095629;28;20469;-81
2023/05/24 12:07:11;;;;;;;3.60;1.52;;;;;;;;;;5112290;28;20035;-81
2023/05/24 12:09:37;;;;;;;3.35;1.40;;;;;;;;;;5106131;28;20042;-81
2023/05/24 12:12:03;;;;;;;3.67;1.35;;;;;;;;;;5094955;28;20640;-81
2023/05/24 12:14:30;;;;;;;3.35;1.30;;;;;;;;;;5094959;28;20519;-81
2023/05/24 12:16:56;;;;;;;4.53;1.55;;;;;;;;;;5094665;28;20382;-81
2023/05/24 12:19:24;;;;;;;5.93;1.33;;;;;;;;;;5095390;28;20055;-81
2023/05/24 12:21:50;;;;;;;3.03;1.20;;;;;;;;;;5095159;28;20374;-81
2023/05/24 12:24:18;;;;;;;7.10;2.00;;;;;;;;;;5096281;28;20024;-80
2023/05/24 12:26:45;;;;;;;4.07;1.13;;;;;;;;;;5095891;28;20024;-81
2023/05/24 12:29:11;;;;;;;3.90;1.20;;;;;;;;;;5095827;28;20024;-81
2023/05/24 12:31:41;;;;;;;4.25;1.40;;;;;;;;;;5075119;28;20063;-80
2023/05/24 12:34:07;;;;;;;;;;;;;;;;;;5083015;28;20031;-79
2023/05/24 12:36:35;;;;;;;4.30;1.45;;;;;;;;;;5116940;28;19904;-80
2023/05/24 12:39:04;;;;;;;1.90;1.08;;;;;;;;;;5120168;28;20053;-79
2023/05/24 12:41:31;;;;;;;3.25;1.60;;;;;;;;;;5116131;28;20024;-79
2023/05/24 12:43:58;;;;;;;8.43;2.00;;;;;;;;;;5096753;28;20027;-79
2023/05/24 12:46:24;;;;;;;5.80;1.30;;;;;;;;;;5096174;28;20016;-79
2023/05/24 12:48:50;;;;;;;7.40;2.22;;;;;;;;;;5097042;28;20036;-79
2023/05/24 12:51:16;;;;;;;5.55;1.73;;;;;;;;;;5095863;28;20073;-79
2023/05/24 12:53:42;;;;;;;5.72;1.58;;;;;;;;;;5095343;28;20735;-79
2023/05/24 12:56:08;;;;;;;4.63;1.55;;;;;;;;;;5096078;28;20053;-79
2023/05/24 12:58:34;;;;;;;6.57;1.40;;;;;;;;;;5095959;28;20027;-79
2023/05/24 13:01:00;;;;;;;7.03;1.80;;;;;;;;;;5085365;28;20024;-79
2023/05/24 13:03:26;;;;;;;6.57;1.60;;;;;;;;;;5074348;28;20086;-79
2023/05/24 13:05:52;;;;;;;5.13;1.52;;;;;;;;;;5084670;28;20032;-79
2023/05/24 13:08:18;;;;;;;8.95;1.48;;;;;;;;;;5097490;28;20034;-79
2023/05/24 13:10:44;;;;;;;2.42;1.05;;;;;;;;;;5095084;28;20074;-79
2023/05/24 13:13:10;;;;;;;3.65;1.10;;;;;;;;;;5097012;28;20081;-79
2023/05/24 13:15:37;;;;;;;5.32;1.48;;;;;;;;;;5097548;28;20077;-79
2023/05/24 13:18:03;;;;;;;6.15;1.52;;;;;;;;;;5094211;28;20020;-79
2023/05/24 13:20:29;;;;;;;5.40;1.65;;;;;;;;;;5096152;28;20031;-79
2023/05/24 13:22:55;;;;;;;4.13;1.42;;;;;;;;;;5087179;28;20028;-79
2023/05/24 13:25:21;;;;;;;3.80;1.40;;;;;;;;;;5074791;28;20024;-78
2023/05/24 13:27:48;;;;;;;1.90;1.48;;;;;;;;;;5091372;28;20103;-79
2023/05/24 13:30:16;;;;;;;6.20;1.25;;;;;;;;;;5094657;28;20469;-79
2023/05/24 13:32:42;;;;;;;5.30;1.45;;;;;;;;;;5096676;28;20044;-78
2023/05/24 13:35:08;;;;;;;5.70;1.55;;;;;;;;;;5096008;28;20023;-79
2023/05/24 13:37:34;;;;;;;6.30;1.67;;;;;;;;;;5099037;28;20092;-79
2023/05/24 13:40:00;;;;;;;7.65;1.77;;;;;;;;;;5096131;28;20052;-79
2023/05/24 13:42:26;;;;;;;6.82;1.92;;;;;;;;;;5095529;28;20443;-80
2023/05/24 13:44:55;;;;;;;8.20;2.00;;;;;;;;;;5076342;28;20020;-79
2023/05/24 13:47:20;;;;;;;5.15;1.02;;;;;;;;;;5087041;28;20093;-78
2023/05/24 13:49:47;;;;;;;6.97;2.33;;;;;;;;;;5073954;28;20029;-79
2023/05/24 13:52:13;;;;;;;9.02;2.35;;;;;;;;;;5075746;28;20104;-79
2023/05/24 13:54:39;;;;;;;5.65;1.70;;;;;;;;;;5074866;28;20059;-79
2023/05/24 13:57:05;;;;;;;5.03;1.33;;;;;;;;;;5073756;28;20069;-79
2023/05/24 13:59:31;;;;;;;3.80;1.05;;;;;;;;;;5075473;28;20028;-79
2023/05/24 14:02:00;;;;;;;5.82;1.58;;;;;;;;;;5078750;28;20383;-79
2023/05/24 14:04:26;;;;;;;4.73;2.23;;;;;;;;;;5080799;28;20060;-79
2023/05/24 14:06:52;;;;;;;7.15;1.80;;;;;;;;;;5102664;28;20028;-80
2023/05/24 14:09:20;;;;;;;14.02;1.92;;;;;;;;;;5098346;28;20369;-79
2023/05/24 14:11:46;;;;;;;5.85;1.65;;;;;;;;;;5098963;28;20520;-80
2023/05/24 14:14:11;;;;;;;10.10;2.53;;;;;;;;;;5110418;28;20032;-81
2023/05/24 14:16:37;;;;;;;4.97;1.70;;;;;;;;;;5118144;28;20483;-81
2023/05/24 14:22:07;;;;;;;11.15;2.20;;;;;;;;;;5097676;28;20043;-81
2023/05/24 14:24:33;;;;;;;3.25;1.38;;;;;;;;;;5079312;28;20024;-81
2023/05/24 14:27:00;;;;;;;8.15;1.90;;;;;;;;;;5097067;28;20115;-81
2023/05/24 14:29:26;;;;;;;6.55;1.38;;;;;;;;;;5097878;28;20028;-81
2023/05/24 14:31:52;;;;;;;10.02;2.17;;;;;;;;;;5095605;28;20045;-82
2023/05/24 14:34:18;;;;;;;5.05;1.85;;;;;;;;;;5097932;28;20145;-81
2023/05/24 14:36:45;;;;;;;4.43;1.50;;;;;;;;;;5098232;28;20024;-81
2023/05/24 14:39:11;;;;;;;4.55;1.25;;;;;;;;;;5098485;28;20028;-81
2023/05/24 14:41:37;;;;;;;3.88;1.80;;;;;;;;;;5100461;28;20024;-81